sensor_id;sensor_type;location;lat;lon;timestamp;pressure;altitude;pressure_sealevel;temperature;humidity
7962;BME280;4026;43.652;24.906;2023-02-14T00:02:10;100608.34;;;0.97;100.00
7962;BME280;4026;43.652;24.906;2023-02-14T00:04:37;100610.00;;;0.98;100.00
7962;BME280;4026;43.652;24.906;2023-02-14T00:07:08;100604.13;;;0.97;100.00
7962;BME280;4026;43.652;24.906;2023-02-14T00:09:35;100602.44;;;0.99;100.00
7962;BME280;4026;43.652;24.906;2023-02-14T00:12:02;100607.47;;;1.02;100.00
7962;BME280;4026;43.652;24.906;2023-02-14T00:14:30;100611.59;;;1.08;100.00
7962;BME280;4026;43.652;24.906;2023-02-14T00:17:15;100610.72;;;1.13;100.00
7962;BME280;4026;43.652;24.906;2023-02-14T00:19:42;100599.75;;;1.16;100.00
7962;BME280;4026;43.652;24.906;2023-02-14T00:22:09;100605.69;;;1.13;100.00
7962;BME280;4026;43.652;24.906;2023-02-14T00:24:36;100603.91;;;1.22;100.00
7962;BME280;4026;43.652;24.906;2023-02-14T00:27:03;100609.78;;;1.21;100.00
7962;BME280;4026;43.652;24.906;2023-02-14T00:29:31;100611.41;;;1.29;100.00
7962;BME280;4026;43.652;24.906;2023-02-14T00:31:58;100618.94;;;1.28;100.00
7962;BME280;4026;43.652;24.906;2023-02-14T00:34:26;100612.19;;;1.33;100.00
7962;BME280;4026;43.652;24.906;2023-02-14T00:36:53;100612.28;;;1.24;100.00
7962;BME280;4026;43.652;24.906;2023-02-14T00:39:20;100615.72;;;1.17;100.00
7962;BME280;4026;43.652;24.906;2023-02-14T00:41:47;100621.59;;;1.17;100.00
7962;BME280;4026;43.652;24.906;2023-02-14T00:44:14;100619.03;;;1.19;100.00
7962;BME280;4026;43.652;24.906;2023-02-14T00:46:41;100608.19;;;1.12;100.00
7962;BME280;4026;43.652;24.906;2023-02-14T00:49:08;100598.84;;;1.22;100.00
7962;BME280;4026;43.652;24.906;2023-02-14T00:51:37;100586.28;;;1.20;100.00
7962;BME280;4026;43.652;24.906;2023-02-14T00:54:04;100582.09;;;1.19;100.00
7962;BME280;4026;43.652;24.906;2023-02-14T00:56:31;100585.44;;;1.23;100.00
7962;BME280;4026;43.652;24.906;2023-02-14T00:58:58;100573.72;;;1.16;100.00
7962;BME280;4026;43.652;24.906;2023-02-14T01:01:25;100580.47;;;1.15;100.00
7962;BME280;4026;43.652;24.906;2023-02-14T01:03:52;100578.00;;;1.09;100.00
7962;BME280;4026;43.652;24.906;2023-02-14T01:06:19;100567.13;;;1.05;100.00
7962;BME280;4026;43.652;24.906;2023-02-14T01:08:47;100560.34;;;1.10;100.00
7962;BME280;4026;43.652;24.906;2023-02-14T01:11:16;100551.94;;;1.15;100.00
7962;BME280;4026;43.652;24.906;2023-02-14T01:13:44;100542.72;;;1.12;100.00
7962;BME280;4026;43.652;24.906;2023-02-14T01:16:13;100536.06;;;1.06;100.00
7962;BME280;4026;43.652;24.906;2023-02-14T01:18:41;100527.69;;;1.01;100.00
7962;BME280;4026;43.652;24.906;2023-02-14T01:21:12;100521.91;;;0.93;100.00
7962;BME280;4026;43.652;24.906;2023-02-14T01:23:39;100520.25;;;0.94;100.00
7962;BME280;4026;43.652;24.906;2023-02-14T01:26:09;100523.59;;;0.94;100.00
7962;BME280;4026;43.652;24.906;2023-02-14T01:28:36;100519.38;;;0.95;100.00
7962;BME280;4026;43.652;24.906;2023-02-14T01:31:07;100516.81;;;0.98;100.00
7962;BME280;4026;43.652;24.906;2023-02-14T01:33:35;100513.47;;;0.97;100.00
7962;BME280;4026;43.652;24.906;2023-02-14T01:36:02;100500.88;;;0.96;100.00
7962;BME280;4026;43.652;24.906;2023-02-14T01:38:29;100508.47;;;0.94;100.00
7962;BME280;4026;43.652;24.906;2023-02-14T01:40:56;100500.97;;;0.89;100.00
7962;BME280;4026;43.652;24.906;2023-02-14T01:43:24;100491.69;;;0.93;100.00
7962;BME280;4026;43.652;24.906;2023-02-14T01:45:51;100501.00;;;0.88;100.00
7962;BME280;4026;43.652;24.906;2023-02-14T01:48:20;100505.13;;;0.92;100.00
7962;BME280;4026;43.652;24.906;2023-02-14T01:50:48;100500.97;;;0.91;100.00
7962;BME280;4026;43.652;24.906;2023-02-14T01:53:20;100486.69;;;0.90;100.00
7962;BME280;4026;43.652;24.906;2023-02-14T01:55:55;100488.44;;;0.85;100.00
7962;BME280;4026;43.652;24.906;2023-02-14T01:58:27;100488.47;;;0.82;100.00
7962;BME280;4026;43.652;24.906;2023-02-14T02:00:55;100488.44;;;0.85;100.00
7962;BME280;4026;43.652;24.906;2023-02-14T02:03:23;100502.63;;;0.94;100.00
7962;BME280;4026;43.652;24.906;2023-02-14T02:05:54;100497.56;;;0.92;100.00
7962;BME280;4026;43.652;24.906;2023-02-14T02:08:23;100506.06;;;0.85;100.00
7962;BME280;4026;43.652;24.906;2023-02-14T02:10:50;100505.22;;;0.83;100.00
7962;BME280;4026;43.652;24.906;2023-02-14T02:13:19;100500.22;;;0.80;100.00
7962;BME280;4026;43.652;24.906;2023-02-14T02:15:55;100479.25;;;0.79;100.00
7962;BME280;4026;43.652;24.906;2023-02-14T02:18:33;100469.22;;;0.76;100.00
7962;BME280;4026;43.652;24.906;2023-02-14T02:24:37;100476.88;;;0.62;100.00
7962;BME280;4026;43.652;24.906;2023-02-14T02:27:33;100484.44;;;0.62;100.00
7962;BME280;4026;43.652;24.906;2023-02-14T02:33:30;100481.22;;;0.50;100.00
7962;BME280;4026;43.652;24.906;2023-02-14T02:36:32;100464.44;;;0.47;100.00
7962;BME280;4026;43.652;24.906;2023-02-14T02:39:12;100456.13;;;0.37;100.00
7962;BME280;4026;43.652;24.906;2023-02-14T02:41:47;100445.28;;;0.34;100.00
7962;BME280;4026;43.652;24.906;2023-02-14T02:44:24;100441.94;;;0.30;100.00
7962;BME280;4026;43.652;24.906;2023-02-14T02:47:00;100447.84;;;0.28;100.00
7962;BME280;4026;43.652;24.906;2023-02-14T02:49:35;100450.38;;;0.25;100.00
7962;BME280;4026;43.652;24.906;2023-02-14T02:52:27;100447.00;;;0.26;100.00
7962;BME280;4026;43.652;24.906;2023-02-14T02:55:18;100447.03;;;0.22;100.00
7962;BME280;4026;43.652;24.906;2023-02-14T02:57:48;100445.38;;;0.21;100.00
7962;BME280;4026;43.652;24.906;2023-02-14T03:00:17;100442.00;;;0.22;100.00
7962;BME280;4026;43.652;24.906;2023-02-14T03:02:47;100445.31;;;0.28;100.00
7962;BME280;4026;43.652;24.906;2023-02-14T03:05:33;100463.78;;;0.27;100.00
7962;BME280;4026;43.652;24.906;2023-02-14T03:08:03;100453.75;;;0.24;100.00
7962;BME280;4026;43.652;24.906;2023-02-14T03:10:32;100460.44;;;0.25;100.00
7962;BME280;4026;43.652;24.906;2023-02-14T03:13:17;100447.03;;;0.22;100.00
7962;BME280;4026;43.652;24.906;2023-02-14T03:15:57;100450.41;;;0.21;100.00
7962;BME280;4026;43.652;24.906;2023-02-14T03:18:38;100447.09;;;0.13;100.00
7962;BME280;4026;43.652;24.906;2023-02-14T03:21:16;100446.25;;;0.14;100.00
7962;BME280;4026;43.652;24.906;2023-02-14T03:23:53;100438.69;;;0.20;100.00
7962;BME280;4026;43.652;24.906;2023-02-14T03:26:26;100446.25;;;0.14;100.00
7962;BME280;4026;43.652;24.906;2023-02-14T03:28:58;100445.44;;;0.11;100.00
7962;BME280;4026;43.652;24.906;2023-02-14T03:31:31;100445.50;;;0.06;100.00
7962;BME280;4026;43.652;24.906;2023-02-14T03:34:07;100440.44;;;0.09;100.00
7962;BME280;4026;43.652;24.906;2023-02-14T03:36:39;100448.84;;;0.05;100.00
7962;BME280;4026;43.652;24.906;2023-02-14T03:39:12;100447.09;;;0.16;100.00
7962;BME280;4026;43.652;24.906;2023-02-14T03:41:48;100437.03;;;0.16;100.00
7962;BME280;4026;43.652;24.906;2023-02-14T03:44:19;100440.41;;;0.15;100.00
7962;BME280;4026;43.652;24.906;2023-02-14T03:46:51;100428.63;;;0.17;100.00
7962;BME280;4026;43.652;24.906;2023-02-14T03:49:22;100421.94;;;0.16;100.00
7962;BME280;4026;43.652;24.906;2023-02-14T03:51:53;100417.72;;;0.21;100.00
7962;BME280;4026;43.652;24.906;2023-02-14T03:54:24;100415.13;;;0.28;100.00
7962;BME280;4026;43.652;24.906;2023-02-14T03:56:55;100417.69;;;0.25;100.00
7962;BME280;4026;43.652;24.906;2023-02-14T03:59:24;100410.19;;;0.18;100.00
7962;BME280;4026;43.652;24.906;2023-02-14T04:01:55;100405.94;;;0.27;100.00
7962;BME280;4026;43.652;24.906;2023-02-14T04:04:26;100405.09;;;0.25;100.00
7962;BME280;4026;43.652;24.906;2023-02-14T04:06:56;100397.63;;;0.17;100.00
7962;BME280;4026;43.652;24.906;2023-02-14T04:09:24;100395.16;;;0.12;100.00
7962;BME280;4026;43.652;24.906;2023-02-14T04:11:51;100387.56;;;0.17;100.00
7962;BME280;4026;43.652;24.906;2023-02-14T04:14:17;100387.59;;;0.15;100.00
7962;BME280;4026;43.652;24.906;2023-02-14T04:16:44;100403.47;;;0.17;100.00
7962;BME280;4026;43.652;24.906;2023-02-14T04:19:28;100403.47;;;0.17;100.00
7962;BME280;4026;43.652;24.906;2023-02-14T04:21:55;100400.97;;;0.17;100.00
7962;BME280;4026;43.652;24.906;2023-02-14T04:24:24;100395.94;;;0.20;100.00
7962;BME280;4026;43.652;24.906;2023-02-14T04:26:50;100394.22;;;0.22;100.00
7962;BME280;4026;43.652;24.906;2023-02-14T04:29:34;100385.88;;;0.20;100.00
7962;BME280;4026;43.652;24.906;2023-02-14T04:32:02;100396.78;;;0.16;100.00
7962;BME280;4026;43.652;24.906;2023-02-14T04:34:29;100410.16;;;0.21;100.00
7962;BME280;4026;43.652;24.906;2023-02-14T04:36:56;100411.84;;;0.19;100.00
7962;BME280;4026;43.652;24.906;2023-02-14T04:39:24;100404.28;;;0.22;100.00
7962;BME280;4026;43.652;24.906;2023-02-14T04:41:51;100404.22;;;0.30;100.00
7962;BME280;4026;43.652;24.906;2023-02-14T04:44:18;100400.09;;;0.21;100.00
7962;BME280;4026;43.652;24.906;2023-02-14T04:46:45;100404.34;;;0.16;100.00
7962;BME280;4026;43.652;24.906;2023-02-14T04:49:12;100406.00;;;0.14;100.00
7962;BME280;4026;43.652;24.906;2023-02-14T04:51:39;100414.44;;;0.12;100.00
7962;BME280;4026;43.652;24.906;2023-02-14T04:54:06;100402.72;;;0.08;100.00
7962;BME280;4026;43.652;24.906;2023-02-14T04:56:34;100395.16;;;0.12;100.00
7962;BME280;4026;43.652;24.906;2023-02-14T04:59:01;100399.34;;;0.13;100.00
7962;BME280;4026;43.652;24.906;2023-02-14T05:01:28;100401.06;;;0.07;100.00
7962;BME280;4026;43.652;24.906;2023-02-14T05:03:55;100406.94;;;0.07;100.00
7962;BME280;4026;43.652;24.906;2023-02-14T05:06:22;100402.72;;;0.08;100.00
7962;BME280;4026;43.652;24.906;2023-02-14T05:08:49;100392.63;;;0.14;100.00
7962;BME280;4026;43.652;24.906;2023-02-14T05:11:16;100387.63;;;0.12;100.00
7962;BME280;4026;43.652;24.906;2023-02-14T05:13:44;100392.66;;;0.09;100.00
7962;BME280;4026;43.652;24.906;2023-02-14T05:16:11;100401.91;;;0.07;100.00
7962;BME280;4026;43.652;24.906;2023-02-14T05:18:38;100410.28;;;0.09;100.00
7962;BME280;4026;43.652;24.906;2023-02-14T05:21:05;100408.59;;;0.08;100.00
7962;BME280;4026;43.652;24.906;2023-02-14T05:23:32;100410.28;;;0.09;100.00
7962;BME280;4026;43.652;24.906;2023-02-14T05:25:59;100418.66;;;0.08;100.00
7962;BME280;4026;43.652;24.906;2023-02-14T05:28:26;100416.97;;;0.10;100.00
7962;BME280;4026;43.652;24.906;2023-02-14T05:30:54;100408.56;;;0.11;100.00
7962;BME280;4026;43.652;24.906;2023-02-14T05:33:23;100406.91;;;0.10;100.00
7962;BME280;4026;43.652;24.906;2023-02-14T05:35:50;100416.84;;;0.22;100.00
7962;BME280;4026;43.652;24.906;2023-02-14T05:38:17;100422.69;;;0.26;100.00
7962;BME280;4026;43.652;24.906;2023-02-14T05:40:44;100422.69;;;0.26;100.00
7962;BME280;4026;43.652;24.906;2023-02-14T05:43:11;100427.66;;;0.35;100.00
7962;BME280;4026;43.652;24.906;2023-02-14T05:45:37;100427.53;;;0.46;100.00
7962;BME280;4026;43.652;24.906;2023-02-14T05:48:06;100420.84;;;0.45;100.00
7962;BME280;4026;43.652;24.906;2023-02-14T05:50:33;100422.47;;;0.49;100.00
7962;BME280;4026;43.652;24.906;2023-02-14T05:52:59;100417.44;;;0.49;100.00
7962;BME280;4026;43.652;24.906;2023-02-14T05:55:26;100416.63;;;0.50;100.00
7962;BME280;4026;43.652;24.906;2023-02-14T05:57:53;100409.84;;;0.55;100.00
7962;BME280;4026;43.652;24.906;2023-02-14T06:00:22;100411.50;;;0.59;100.00
7962;BME280;4026;43.652;24.906;2023-02-14T06:02:49;100406.47;;;0.59;100.00
7962;BME280;4026;43.652;24.906;2023-02-14T06:05:17;100422.28;;;0.69;100.00
7962;BME280;4026;43.652;24.906;2023-02-14T06:07:44;100418.03;;;0.76;100.00
7962;BME280;4026;43.652;24.906;2023-02-14T06:10:16;100423.00;;;0.82;100.00
7962;BME280;4026;43.652;24.906;2023-02-14T06:12:43;100421.31;;;0.81;100.00
7962;BME280;4026;43.652;24.906;2023-02-14T06:15:10;100430.47;;;0.89;100.00
7962;BME280;4026;43.652;24.906;2023-02-14T06:17:37;100429.59;;;0.92;100.00
7962;BME280;4026;43.652;24.906;2023-02-14T06:20:06;100429.53;;;0.98;100.00
7962;BME280;4026;43.652;24.906;2023-02-14T06:22:36;100434.44;;;1.07;100.00
7962;BME280;4026;43.652;24.906;2023-02-14T06:25:04;100432.69;;;1.16;100.00
7962;BME280;4026;43.652;24.906;2023-02-14T06:27:32;100425.81;;;1.27;100.00
7962;BME280;4026;43.652;24.906;2023-02-14T06:29:59;100430.75;;;1.36;100.00
7962;BME280;4026;43.652;24.906;2023-02-14T06:32:26;100434.69;;;1.55;100.00
7962;BME280;4026;43.652;24.906;2023-02-14T06:34:53;100431.16;;;1.69;100.00
7962;BME280;4026;43.652;24.906;2023-02-14T06:37:19;100433.44;;;1.84;100.00
7962;BME280;4026;43.652;24.906;2023-02-14T06:39:48;100421.47;;;1.98;100.00
7962;BME280;4026;43.652;24.906;2023-02-14T06:42:15;100427.75;;;2.24;100.00
7962;BME280;4026;43.652;24.906;2023-02-14T06:44:41;100417.47;;;2.36;100.00
7962;BME280;4026;43.652;24.906;2023-02-14T06:47:08;100423.91;;;2.53;100.00
7962;BME280;4026;43.652;24.906;2023-02-14T06:49:35;100431.75;;;2.84;100.00
7962;BME280;4026;43.652;24.906;2023-02-14T06:52:03;100443.50;;;2.86;100.00
7962;BME280;4026;43.652;24.906;2023-02-14T06:54:30;100444.97;;;2.97;100.00
7962;BME280;4026;43.652;24.906;2023-02-14T06:56:59;100448.50;;;3.31;100.00
7962;BME280;4026;43.652;24.906;2023-02-14T06:59:25;100456.94;;;3.32;100.00
7962;BME280;4026;43.652;24.906;2023-02-14T07:01:52;100456.72;;;3.81;100.00
7962;BME280;4026;43.652;24.906;2023-02-14T07:04:19;100458.66;;;3.70;100.00
7962;BME280;4026;43.652;24.906;2023-02-14T07:06:46;100454.28;;;4.14;100.00
7962;BME280;4026;43.652;24.906;2023-02-14T07:09:13;100457.88;;;4.04;99.08
7962;BME280;4026;43.652;24.906;2023-02-14T07:11:42;100454.44;;;4.06;99.74
7962;BME280;4026;43.652;24.906;2023-02-14T07:14:11;100455.34;;;4.40;97.21
7962;BME280;4026;43.652;24.906;2023-02-14T07:16:38;100463.09;;;4.34;97.22
7962;BME280;4026;43.652;24.906;2023-02-14T07:19:05;100450.56;;;4.27;94.80
7962;BME280;4026;43.652;24.906;2023-02-14T07:21:32;100458.06;;;4.32;96.03
7962;BME280;4026;43.652;24.906;2023-02-14T07:23:59;100454.91;;;4.57;94.55
7962;BME280;4026;43.652;24.906;2023-02-14T07:26:26;100460.41;;;4.40;94.78
7962;BME280;4026;43.652;24.906;2023-02-14T07:28:53;100470.69;;;4.34;95.71
7962;BME280;4026;43.652;24.906;2023-02-14T07:31:21;100468.91;;;4.71;93.40
7962;BME280;4026;43.652;24.906;2023-02-14T07:33:48;100467.44;;;4.94;91.84
7962;BME280;4026;43.652;24.906;2023-02-14T07:36:15;100466.97;;;5.12;89.74
7962;BME280;4026;43.652;24.906;2023-02-14T07:38:42;100470.78;;;4.96;89.93
7962;BME280;4026;43.652;24.906;2023-02-14T07:41:09;100473.34;;;5.26;90.48
7962;BME280;4026;43.652;24.906;2023-02-14T07:43:36;100468.72;;;5.40;86.99
7962;BME280;4026;43.652;24.906;2023-02-14T07:46:04;100464.56;;;5.95;85.57
7962;BME280;4026;43.652;24.906;2023-02-14T07:48:32;100452.38;;;6.05;84.86
7962;BME280;4026;43.652;24.906;2023-02-14T07:50:59;100446.53;;;5.47;85.01
7962;BME280;4026;43.652;24.906;2023-02-14T07:53:26;100456.31;;;5.87;84.77
7962;BME280;4026;43.652;24.906;2023-02-14T07:55:53;100453.00;;;5.57;84.71
7962;BME280;4026;43.652;24.906;2023-02-14T07:58:20;100464.53;;;5.67;84.40
7962;BME280;4026;43.652;24.906;2023-02-14T08:00:47;100460.38;;;6.21;84.20
7962;BME280;4026;43.652;24.906;2023-02-14T08:03:15;100448.69;;;6.67;81.65
7962;BME280;4026;43.652;24.906;2023-02-14T08:05:44;100451.25;;;7.37;78.42
7962;BME280;4026;43.652;24.906;2023-02-14T08:08:22;100449.09;;;7.26;77.10
7962;BME280;4026;43.652;24.906;2023-02-14T08:10:49;100451.59;;;6.81;78.86
7962;BME280;4026;43.652;24.906;2023-02-14T08:13:16;100456.78;;;6.53;78.65
7962;BME280;4026;43.652;24.906;2023-02-14T08:15:42;100460.81;;;6.58;79.88
7962;BME280;4026;43.652;24.906;2023-02-14T08:18:26;100450.59;;;7.09;78.39
7962;BME280;4026;43.652;24.906;2023-02-14T08:20:54;100461.22;;;7.20;76.69
7962;BME280;4026;43.652;24.906;2023-02-14T08:23:21;100463.47;;;7.73;74.83
7962;BME280;4026;43.652;24.906;2023-02-14T08:25:49;100454.06;;;7.30;74.28
7962;BME280;4026;43.652;24.906;2023-02-14T08:28:17;100448.78;;;7.58;74.60
7962;BME280;4026;43.652;24.906;2023-02-14T08:30:44;100456.09;;;7.21;76.49
7962;BME280;4026;43.652;24.906;2023-02-14T08:33:11;100449.03;;;7.96;73.96
7962;BME280;4026;43.652;24.906;2023-02-14T08:35:38;100449.00;;;8.18;72.66
7962;BME280;4026;43.652;24.906;2023-02-14T08:38:07;100449.25;;;7.45;73.76
7962;BME280;4026;43.652;24.906;2023-02-14T08:40:34;100443.34;;;7.67;74.95
7962;BME280;4026;43.652;24.906;2023-02-14T08:43:01;100439.16;;;7.66;76.67
7962;BME280;4026;43.652;24.906;2023-02-14T08:45:28;100435.69;;;8.31;73.48
7962;BME280;4026;43.652;24.906;2023-02-14T08:47:59;100439.63;;;7.98;71.60
7962;BME280;4026;43.652;24.906;2023-02-14T08:50:26;100431.31;;;8.35;71.42
7962;BME280;4026;43.652;24.906;2023-02-14T08:52:53;100441.03;;;8.25;72.43
7962;BME280;4026;43.652;24.906;2023-02-14T08:55:21;100436.91;;;8.64;70.56
7962;BME280;4026;43.652;24.906;2023-02-14T08:57:48;100448.44;;;7.89;70.72
7962;BME280;4026;43.652;24.906;2023-02-14T09:00:16;100450.16;;;7.88;70.14
7962;BME280;4026;43.652;24.906;2023-02-14T09:02:43;100447.38;;;7.94;74.20
7962;BME280;4026;43.652;24.906;2023-02-14T09:05:10;100443.16;;;7.93;71.23
7962;BME280;4026;43.652;24.906;2023-02-14T09:07:37;100447.44;;;7.71;72.54
7962;BME280;4026;43.652;24.906;2023-02-14T09:10:05;100446.44;;;7.75;73.50
7962;BME280;4026;43.652;24.906;2023-02-14T09:12:34;100435.28;;;8.20;72.15
7962;BME280;4026;43.652;24.906;2023-02-14T09:15:01;100438.78;;;8.60;69.63
7962;BME280;4026;43.652;24.906;2023-02-14T09:17:27;100444.78;;;8.38;68.16
7962;BME280;4026;43.652;24.906;2023-02-14T09:19:55;100443.81;;;8.61;71.54
7962;BME280;4026;43.652;24.906;2023-02-14T09:22:22;100452.84;;;8.48;68.99
7962;BME280;4026;43.652;24.906;2023-02-14T09:24:48;100448.97;;;8.39;70.75
7962;BME280;4026;43.652;24.906;2023-02-14T09:27:15;100446.78;;;8.71;70.38
7962;BME280;4026;43.652;24.906;2023-02-14T09:29:44;100453.38;;;8.56;69.89
7962;BME280;4026;43.652;24.906;2023-02-14T09:32:10;100463.38;;;8.81;68.21
7962;BME280;4026;43.652;24.906;2023-02-14T09:34:37;100454.78;;;9.22;66.62
7962;BME280;4026;43.652;24.906;2023-02-14T09:37:04;100451.88;;;9.29;66.34
7962;BME280;4026;43.652;24.906;2023-02-14T09:39:48;100452.00;;;9.64;64.16
7962;BME280;4026;43.652;24.906;2023-02-14T09:42:28;100447.59;;;9.30;63.32
7962;BME280;4026;43.652;24.906;2023-02-14T09:45:04;100452.81;;;9.84;63.09
7962;BME280;4026;43.652;24.906;2023-02-14T09:47:36;100442.47;;;9.68;65.11
7962;BME280;4026;43.652;24.906;2023-02-14T09:50:14;100442.56;;;9.66;64.79
7962;BME280;4026;43.652;24.906;2023-02-14T09:52:45;100449.81;;;9.38;62.95
7962;BME280;4026;43.652;24.906;2023-02-14T09:55:15;100439.88;;;9.50;63.75
7962;BME280;4026;43.652;24.906;2023-02-14T09:57:56;100431.94;;;9.93;63.80
7962;BME280;4026;43.652;24.906;2023-02-14T10:00:32;100425.38;;;9.87;63.99
7962;BME280;4026;43.652;24.906;2023-02-14T10:03:10;100430.28;;;10.09;62.36
7962;BME280;4026;43.652;24.906;2023-02-14T10:05:47;100433.84;;;10.41;61.79
7962;BME280;4026;43.652;24.906;2023-02-14T10:08:30;100428.94;;;10.54;61.58
7962;BME280;4026;43.652;24.906;2023-02-14T10:11:06;100431.31;;;10.41;60.07
7962;BME280;4026;43.652;24.906;2023-02-14T10:13:38;100421.28;;;10.37;59.70
7962;BME280;4026;43.652;24.906;2023-02-14T10:16:11;100419.84;;;10.14;60.60
7962;BME280;4026;43.652;24.906;2023-02-14T10:18:46;100433.13;;;10.03;59.15
7962;BME280;4026;43.652;24.906;2023-02-14T10:21:20;100432.75;;;10.30;59.65
7962;BME280;4026;43.652;24.906;2023-02-14T10:23:50;100421.41;;;9.99;59.96
7962;BME280;4026;43.652;24.906;2023-02-14T10:26:23;100416.91;;;9.87;57.81
7962;BME280;4026;43.652;24.906;2023-02-14T10:28:51;100414.97;;;10.27;60.63
7962;BME280;4026;43.652;24.906;2023-02-14T10:31:22;100421.13;;;10.40;57.76
7962;BME280;4026;43.652;24.906;2023-02-14T10:33:54;100410.91;;;10.40;56.55
7962;BME280;4026;43.652;24.906;2023-02-14T10:36:36;100408.06;;;10.29;59.25
7962;BME280;4026;43.652;24.906;2023-02-14T10:39:16;100402.63;;;10.35;58.61
7962;BME280;4026;43.652;24.906;2023-02-14T10:41:51;100404.03;;;10.58;56.23
7962;BME280;4026;43.652;24.906;2023-02-14T10:44:35;100398.34;;;10.01;57.91
7962;BME280;4026;43.652;24.906;2023-02-14T10:47:19;100403.06;;;10.60;58.23
7962;BME280;4026;43.652;24.906;2023-02-14T10:49:55;100406.06;;;10.84;58.27
7962;BME280;4026;43.652;24.906;2023-02-14T10:52:31;100401.94;;;10.49;57.06
7962;BME280;4026;43.652;24.906;2023-02-14T10:55:10;100396.44;;;10.56;57.77
7962;BME280;4026;43.652;24.906;2023-02-14T10:57:40;100386.25;;;10.22;59.71
7962;BME280;4026;43.652;24.906;2023-02-14T11:00:16;100394.06;;;10.53;57.08
7962;BME280;4026;43.652;24.906;2023-02-14T11:02:50;100398.81;;;10.77;57.22
7962;BME280;4026;43.652;24.906;2023-02-14T11:05:25;100390.88;;;10.65;57.12
7962;BME280;4026;43.652;24.906;2023-02-14T11:07:53;100387.88;;;10.73;54.38
7962;BME280;4026;43.652;24.906;2023-02-14T11:10:25;100374.16;;;10.58;56.60
7962;BME280;4026;43.652;24.906;2023-02-14T11:12:54;100375.63;;;10.80;56.63
7962;BME280;4026;43.652;24.906;2023-02-14T11:15:24;100374.81;;;10.46;54.55
7962;BME280;4026;43.652;24.906;2023-02-14T11:18:09;100372.41;;;10.08;55.79
7962;BME280;4026;43.652;24.906;2023-02-14T11:20:41;100364.28;;;10.17;54.61
7962;BME280;4026;43.652;24.906;2023-02-14T11:23:18;100364.84;;;9.89;57.39
7962;BME280;4026;43.652;24.906;2023-02-14T11:25:49;100372.09;;;9.97;55.83
7962;BME280;4026;43.652;24.906;2023-02-14T11:28:18;100368.06;;;9.93;56.68
7962;BME280;4026;43.652;24.906;2023-02-14T11:30:47;100362.13;;;10.27;57.51
7962;BME280;4026;43.652;24.906;2023-02-14T11:33:28;100363.88;;;10.76;56.53
7962;BME280;4026;43.652;24.906;2023-02-14T11:35:56;100361.56;;;10.38;55.08
7962;BME280;4026;43.652;24.906;2023-02-14T11:38:27;100349.22;;;10.46;55.16
7962;BME280;4026;43.652;24.906;2023-02-14T11:40:56;100348.22;;;10.82;54.96
7962;BME280;4026;43.652;24.906;2023-02-14T11:43:32;100336.25;;;10.98;53.81
7962;BME280;4026;43.652;24.906;2023-02-14T11:46:09;100320.56;;;10.73;54.07
7962;BME280;4026;43.652;24.906;2023-02-14T11:48:53;100328.50;;;11.16;55.21
7962;BME280;4026;43.652;24.906;2023-02-14T11:51:26;100324.25;;;11.46;52.96
7962;BME280;4026;43.652;24.906;2023-02-14T11:53:55;100338.31;;;11.07;53.50
7962;BME280;4026;43.652;24.906;2023-02-14T11:56:43;100331.28;;;10.63;56.27
7962;BME280;4026;43.652;24.906;2023-02-14T11:59:18;100336.34;;;10.81;55.69
7962;BME280;4026;43.652;24.906;2023-02-14T12:01:48;100331.06;;;11.46;56.47
7962;BME280;4026;43.652;24.906;2023-02-14T12:04:18;100335.22;;;12.09;52.96
7962;BME280;4026;43.652;24.906;2023-02-14T12:06:46;100334.31;;;11.79;52.92
7962;BME280;4026;43.652;24.906;2023-02-14T12:09:24;100325.69;;;11.20;52.26
7962;BME280;4026;43.652;24.906;2023-02-14T12:11:53;100317.56;;;11.28;54.64
7962;BME280;4026;43.652;24.906;2023-02-14T12:14:22;100312.81;;;10.90;53.64
7962;BME280;4026;43.652;24.906;2023-02-14T12:16:56;100305.97;;;11.52;54.14
7962;BME280;4026;43.652;24.906;2023-02-14T12:19:33;100308.94;;;11.61;53.06
7962;BME280;4026;43.652;24.906;2023-02-14T12:22:03;100313.94;;;11.32;52.18
7962;BME280;4026;43.652;24.906;2023-02-14T12:24:33;100310.88;;;10.46;52.64
7962;BME280;4026;43.652;24.906;2023-02-14T12:27:17;100317.78;;;10.11;54.36
7962;BME280;4026;43.652;24.906;2023-02-14T12:29:48;100309.13;;;10.13;55.60
7962;BME280;4026;43.652;24.906;2023-02-14T12:32:20;100309.72;;;10.18;54.98
7962;BME280;4026;43.652;24.906;2023-02-14T12:34:51;100306.41;;;9.66;55.49
7962;BME280;4026;43.652;24.906;2023-02-14T12:37:26;100306.16;;;9.53;55.99
7962;BME280;4026;43.652;24.906;2023-02-14T12:40:10;100306.72;;;9.23;59.12
7962;BME280;4026;43.652;24.906;2023-02-14T12:42:52;100303.94;;;8.92;60.03
7962;BME280;4026;43.652;24.906;2023-02-14T12:45:29;100295.50;;;8.90;59.96
7962;BME280;4026;43.652;24.906;2023-02-14T12:48:10;100294.63;;;8.72;60.70
7962;BME280;4026;43.652;24.906;2023-02-14T12:50:46;100291.09;;;9.12;60.15
7962;BME280;4026;43.652;24.906;2023-02-14T12:56:26;100277.09;;;9.38;58.92
7962;BME280;4026;43.652;24.906;2023-02-14T12:59:00;100287.34;;;9.19;59.90
7962;BME280;4026;43.652;24.906;2023-02-14T13:01:58;100287.50;;;9.16;60.47
7962;BME280;4026;43.652;24.906;2023-02-14T13:04:53;100289.44;;;9.11;58.18
7962;BME280;4026;43.652;24.906;2023-02-14T13:07:30;100284.28;;;8.94;58.00
7962;BME280;4026;43.652;24.906;2023-02-14T13:10:13;100264.84;;;9.45;58.70
7962;BME280;4026;43.652;24.906;2023-02-14T13:12:45;100273.47;;;9.77;59.39
7962;BME280;4026;43.652;24.906;2023-02-14T13:15:20;100268.50;;;10.25;58.69
7962;BME280;4026;43.652;24.906;2023-02-14T13:17:53;100269.97;;;10.30;57.55
7962;BME280;4026;43.652;24.906;2023-02-14T13:20:37;100258.53;;;10.53;56.38
7962;BME280;4026;43.652;24.906;2023-02-14T13:23:13;100252.53;;;9.53;57.13
7962;BME280;4026;43.652;24.906;2023-02-14T13:25:44;100254.25;;;9.52;58.56
7962;BME280;4026;43.652;24.906;2023-02-14T13:28:16;100258.53;;;9.17;59.52
7962;BME280;4026;43.652;24.906;2023-02-14T13:30:44;100261.34;;;8.94;60.44
7962;BME280;4026;43.652;24.906;2023-02-14T13:33:23;100247.44;;;8.63;58.99